createdAt,value
2022-08-12T00:02:36.505Z,2.50
2022-08-12T00:09:26.572Z,2.63
2022-08-12T00:12:46.997Z,2.33
2022-08-12T00:20:47.416Z,2.47
2022-08-12T00:24:07.478Z,2.33
2022-08-12T00:27:43.518Z,2.40
2022-08-12T00:31:04.652Z,2.38
2022-08-12T00:37:45.183Z,2.20
2022-08-12T00:41:05.299Z,2.33
2022-08-12T00:47:24.715Z,2.30
2022-08-12T00:50:28.863Z,2.72
2022-08-12T00:53:30.873Z,2.60
2022-08-12T00:56:32.566Z,2.25
2022-08-12T00:59:35.214Z,2.40
2022-08-12T01:02:42.996Z,2.45
2022-08-12T01:06:05.904Z,2.45
2022-08-12T01:09:27.162Z,2.40
2022-08-12T01:12:29.325Z,2.70
2022-08-12T01:15:31.379Z,2.58
2022-08-12T01:18:35.205Z,2.85
2022-08-12T01:22:02.651Z,2.60
2022-08-12T01:25:05.337Z,2.50
2022-08-12T01:28:12.295Z,2.58
2022-08-12T01:31:16.474Z,2.60
2022-08-12T01:34:35.660Z,2.42
2022-08-12T01:40:52.763Z,2.88
2022-08-12T01:43:55.021Z,3.08
2022-08-12T01:47:24.873Z,2.80
2022-08-12T01:51:01.256Z,2.88
2022-08-12T01:54:12.467Z,2.92
2022-08-12T01:57:58.770Z,2.85
2022-08-12T02:00:55.644Z,3.10
2022-08-12T02:04:31.604Z,2.70
2022-08-12T02:07:58.177Z,2.80
2022-08-12T02:11:16.512Z,2.78
2022-08-12T02:14:50.948Z,2.85
2022-08-12T02:18:02.979Z,2.38
2022-08-12T02:21:12.059Z,2.92
2022-08-12T02:24:18.651Z,2.60
2022-08-12T02:27:24.414Z,2.42
2022-08-12T02:30:35.375Z,2.47
2022-08-12T02:33:50.696Z,2.60
2022-08-12T02:36:57.401Z,2.53
2022-08-12T02:40:01.986Z,2.30
2022-08-12T02:43:12.298Z,2.53
2022-08-12T02:46:17.998Z,2.55
2022-08-12T02:49:23.163Z,2.30
2022-08-12T02:52:27.053Z,2.28
2022-08-12T02:55:34.830Z,2.90
2022-08-12T02:58:41.162Z,3.00
2022-08-12T03:01:48.451Z,2.72
2022-08-12T03:05:01.309Z,2.72
2022-08-12T03:08:04.837Z,2.80
2022-08-12T03:11:51.138Z,3.10
2022-08-12T03:14:56.166Z,2.88
2022-08-12T03:18:24.726Z,2.80
2022-08-12T03:21:55.334Z,2.70
2022-08-12T03:24:46.552Z,2.75
2022-08-12T03:27:51.698Z,3.00
2022-08-12T03:30:56.747Z,2.90
2022-08-12T03:34:03.283Z,2.85
2022-08-12T03:37:07.706Z,3.00
2022-08-12T03:40:29.860Z,3.00
2022-08-12T03:43:53.316Z,3.05
2022-08-12T03:47:21.328Z,2.90
2022-08-12T03:50:41.590Z,3.22
2022-08-12T03:54:03.862Z,3.25
2022-08-12T03:57:23.893Z,3.17
2022-08-12T04:00:25.816Z,3.47
2022-08-12T04:03:46.191Z,3.50
2022-08-12T04:06:48.184Z,3.35
2022-08-12T04:09:49.980Z,3.35
2022-08-12T04:13:16.917Z,3.05
2022-08-12T04:16:20.091Z,3.42
2022-08-12T04:19:23.933Z,3.63
2022-08-12T04:22:29.654Z,3.15
2022-08-12T04:25:32.553Z,3.70
2022-08-12T04:28:34.674Z,3.40
2022-08-12T04:31:39.847Z,3.03
2022-08-12T04:34:44.428Z,3.47
2022-08-12T04:37:58.759Z,3.60
2022-08-12T04:41:05.905Z,3.55
2022-08-12T04:44:08.987Z,3.28
2022-08-12T04:47:12.399Z,3.40
2022-08-12T04:50:34.936Z,3.20
2022-08-12T04:53:38.213Z,3.42
2022-08-12T04:56:40.468Z,3.35
2022-08-12T04:59:46.679Z,3.33
2022-08-12T05:02:50.330Z,3.25
2022-08-12T05:05:52.759Z,3.25
2022-08-12T05:08:56.044Z,3.45
2022-08-12T05:11:57.722Z,3.47
2022-08-12T05:14:59.316Z,3.05
2022-08-12T05:18:02.160Z,3.45
2022-08-12T05:21:18.461Z,3.30
2022-08-12T05:24:20.036Z,3.40
2022-08-12T05:27:22.852Z,3.50
2022-08-12T05:30:24.423Z,3.40
2022-08-12T05:33:26.547Z,3.40
2022-08-12T05:36:28.107Z,3.22
2022-08-12T05:39:29.659Z,3.67
2022-08-12T05:42:41.112Z,3.58
2022-08-12T05:45:44.843Z,3.50
2022-08-12T05:48:47.652Z,3.55
2022-08-12T05:51:49.156Z,3.53
2022-08-12T05:54:57.598Z,3.50
2022-08-12T05:58:01.994Z,3.25
2022-08-12T06:02:10.788Z,3.30
2022-08-12T06:04:25.144Z,3.65
2022-08-12T06:07:37.295Z,3.70
2022-08-12T06:10:50.112Z,3.47
2022-08-12T06:13:54.406Z,3.80
2022-08-12T06:16:56.633Z,3.70
2022-08-12T06:20:28.090Z,3.47
2022-08-12T06:23:20.029Z,3.88
2022-08-12T06:26:22.058Z,3.60
2022-08-12T06:30:08.362Z,3.55
2022-08-12T06:32:51.610Z,3.67
2022-08-12T06:36:07.022Z,3.70
2022-08-12T06:39:14.571Z,3.70
2022-08-12T06:42:35.250Z,3.75
2022-08-12T06:45:45.132Z,4.07
2022-08-12T06:48:49.980Z,3.88
2022-08-12T06:51:56.604Z,3.83
2022-08-12T06:54:59.865Z,3.30
2022-08-12T06:58:07.829Z,3.67
2022-08-12T07:01:12.197Z,3.20
2022-08-12T07:04:35.864Z,4.00
2022-08-12T07:07:38.865Z,3.55
2022-08-12T07:10:50.780Z,3.40
2022-08-12T07:14:12.699Z,3.78
2022-08-12T07:17:14.869Z,3.42
2022-08-12T07:20:42.502Z,3.58
2022-08-12T07:23:41.584Z,3.65
2022-08-12T07:26:44.667Z,3.60
2022-08-12T07:30:04.049Z,3.45
2022-08-12T07:33:08.734Z,3.50
2022-08-12T07:36:13.937Z,3.22
2022-08-12T07:39:15.612Z,3.50
2022-08-12T07:42:17.189Z,4.15
2022-08-12T07:45:20.645Z,3.70
2022-08-12T07:48:24.192Z,3.65
2022-08-12T07:51:27.104Z,3.47
2022-08-12T07:54:28.630Z,3.28
2022-08-12T07:57:32.454Z,3.80
2022-08-12T08:00:36.116Z,3.60
2022-08-12T08:03:47.623Z,3.55
2022-08-12T08:06:51.434Z,3.45
2022-08-12T08:09:58.457Z,3.05
2022-08-12T08:13:05.023Z,3.65
2022-08-12T08:16:07.929Z,3.33
2022-08-12T08:19:19.180Z,3.15
2022-08-12T08:22:40.472Z,3.63
2022-08-12T08:25:43.906Z,3.30
2022-08-12T08:28:45.415Z,3.38
2022-08-12T08:31:52.098Z,3.70
2022-08-12T08:34:54.666Z,3.40
2022-08-12T08:38:07.285Z,3.90
2022-08-12T08:42:14.275Z,3.30
2022-08-12T08:48:00.613Z,3.17
2022-08-12T08:51:06.040Z,2.92
2022-08-12T08:54:08.666Z,3.17
2022-08-12T08:57:10.659Z,3.15
2022-08-12T09:00:17.764Z,3.10
2022-08-12T09:05:09.952Z,3.03
2022-08-12T09:06:42.013Z,2.90
2022-08-12T09:16:50.698Z,2.92
2022-08-12T09:19:57.440Z,3.20
2022-08-12T09:23:01.267Z,2.83
2022-08-12T09:26:09.834Z,3.05
2022-08-12T09:29:18.273Z,2.83
2022-08-12T09:32:57.117Z,2.60
2022-08-12T09:35:42.913Z,2.92
2022-08-12T09:38:58.882Z,2.90
2022-08-12T09:42:39.608Z,3.30
2022-08-12T09:46:20.332Z,2.88
2022-08-12T09:49:13.181Z,3.00
2022-08-12T09:52:19.104Z,2.70
2022-08-12T09:56:06.472Z,2.80
2022-08-12T09:59:00.639Z,2.40
2022-08-12T10:02:52.945Z,2.65
2022-08-12T10:06:27.639Z,2.88
2022-08-12T10:08:52.561Z,2.88
2022-08-12T10:12:13.727Z,2.88
2022-08-12T10:18:51.220Z,2.50
2022-08-12T10:21:56.896Z,2.88
2022-08-12T10:25:18.194Z,2.70
2022-08-12T10:28:38.912Z,2.30
2022-08-12T10:32:19.520Z,2.53
2022-08-12T10:35:02.478Z,2.30
2022-08-12T10:38:36.643Z,2.28
2022-08-12T10:41:57.955Z,2.13
2022-08-12T10:45:07.460Z,2.20
2022-08-12T10:48:21.220Z,2.55
2022-08-12T10:52:04.569Z,2.40
2022-08-12T10:54:52.805Z,2.20
2022-08-12T10:58:15.225Z,2.33
2022-08-12T11:01:49.793Z,2.42
2022-08-12T11:04:49.240Z,2.03
2022-08-12T11:08:37.804Z,2.70
2022-08-12T11:12:07.556Z,3.00
2022-08-12T11:14:49.473Z,2.75
2022-08-12T11:17:55.674Z,2.63
2022-08-12T11:20:58.700Z,2.97
2022-08-12T11:24:01.939Z,2.42
2022-08-12T11:27:07.423Z,2.70
2022-08-12T11:30:31.515Z,2.55
2022-08-12T11:34:04.138Z,2.45
2022-08-12T11:37:04.916Z,2.40
2022-08-12T11:43:19.628Z,2.50
2022-08-12T11:46:21.885Z,2.30
2022-08-12T11:49:31.719Z,2.63
2022-08-12T11:52:55.012Z,2.50
2022-08-12T11:55:57.990Z,2.80
2022-08-12T12:02:21.593Z,2.55
2022-08-12T12:05:39.350Z,2.58
2022-08-12T12:08:43.350Z,2.50
2022-08-12T12:11:49.703Z,2.22
2022-08-12T12:14:54.570Z,2.10
2022-08-12T12:17:57.178Z,2.00
2022-08-12T12:21:04.879Z,2.08
2022-08-12T12:24:09.802Z,2.25
2022-08-12T12:27:11.454Z,2.10
2022-08-12T12:30:29.875Z,2.40
2022-08-12T12:33:57.240Z,2.50
2022-08-12T12:36:54.763Z,2.40
2022-08-12T12:39:59.700Z,2.15
2022-08-12T12:43:05.274Z,2.13
2022-08-12T12:46:07.249Z,2.25
2022-08-12T12:49:11.210Z,2.47
2022-08-12T12:52:19.315Z,2.25
2022-08-12T12:55:23.448Z,2.25
2022-08-12T12:58:34.147Z,2.45
2022-08-12T13:01:41.843Z,2.10
2022-08-12T13:04:43.709Z,2.15
2022-08-12T13:07:49.289Z,2.42
2022-08-12T13:11:03.399Z,2.28
2022-08-12T13:14:11.937Z,2.33
2022-08-12T13:17:17.469Z,2.47
2022-08-12T13:20:38.145Z,2.38
2022-08-12T13:23:44.815Z,2.30
2022-08-12T13:26:46.497Z,2.13
2022-08-12T13:29:48.925Z,2.35
2022-08-12T13:32:58.869Z,2.20
2022-08-12T13:36:05.957Z,2.08
2022-08-12T13:39:12.747Z,2.55
2022-08-12T13:42:22.809Z,2.25
2022-08-12T13:45:34.803Z,2.28
2022-08-12T13:48:36.925Z,2.10
2022-08-12T13:51:41.236Z,2.40
2022-08-12T13:56:01.575Z,2.38
2022-08-12T13:58:16.841Z,2.45
2022-08-12T14:01:23.054Z,2.33
2022-08-12T14:04:24.877Z,2.05
2022-08-12T14:07:27.516Z,1.92
2022-08-12T14:10:38.068Z,2.08
2022-08-12T14:14:03.168Z,2.03
2022-08-12T14:17:02.348Z,2.22
2022-08-12T14:20:13.813Z,2.20
2022-08-12T14:24:01.180Z,2.72
2022-08-12T14:26:41.459Z,2.03
2022-08-12T14:30:05.956Z,2.30
2022-08-12T14:33:09.087Z,2.40
2022-08-12T14:36:13.028Z,2.00
2022-08-12T14:39:20.913Z,2.20
2022-08-12T14:42:28.211Z,2.10
2022-08-12T14:45:44.524Z,2.20
2022-08-12T14:48:52.645Z,2.20
2022-08-12T14:52:48.412Z,2.13
2022-08-12T14:58:59.950Z,1.90
2022-08-12T15:02:02.713Z,2.17
2022-08-12T15:05:06.636Z,1.90
2022-08-12T15:08:13.987Z,2.13
2022-08-12T15:11:24.085Z,2.13
2022-08-12T15:14:45.845Z,1.90
2022-08-12T15:17:47.407Z,1.90
2022-08-12T15:21:05.530Z,1.70
2022-08-12T15:24:12.825Z,1.73
2022-08-12T15:27:14.491Z,2.00
2022-08-12T15:30:24.779Z,1.90
2022-08-12T15:33:45.141Z,1.80
2022-08-12T15:36:54.992Z,2.10
2022-08-12T15:40:01.394Z,1.90
2022-08-12T15:43:04.695Z,1.83
2022-08-12T15:46:14.889Z,1.80
2022-08-12T15:49:19.087Z,2.10
2022-08-12T15:52:27.299Z,1.88
2022-08-12T15:55:33.427Z,1.80
2022-08-12T15:58:41.302Z,1.63
2022-08-12T16:01:43.564Z,1.80
2022-08-12T16:04:50.178Z,1.50
2022-08-12T16:07:52.353Z,1.50
2022-08-12T16:10:54.050Z,1.50
2022-08-12T16:13:55.641Z,1.40
2022-08-12T16:16:57.664Z,1.27
2022-08-12T16:20:03.803Z,1.50
2022-08-12T16:23:26.248Z,1.40
2022-08-12T16:26:34.837Z,1.35
2022-08-12T16:29:52.828Z,1.52
2022-08-12T16:32:58.329Z,1.35
2022-08-12T16:36:00.364Z,1.33
2022-08-12T16:39:03.900Z,1.50
2022-08-12T16:42:08.155Z,1.40
2022-08-12T16:45:13.542Z,1.30
2022-08-12T16:48:33.708Z,1.20
2022-08-12T16:51:40.394Z,1.40
2022-08-12T16:54:44.410Z,1.13
2022-08-12T16:57:48.449Z,1.35
2022-08-12T17:00:51.592Z,1.15
2022-08-12T17:04:09.109Z,1.10
2022-08-12T17:07:16.960Z,1.20
2022-08-12T17:10:36.209Z,1.17
2022-08-12T17:13:53.273Z,1.10
2022-08-12T17:16:55.844Z,1.20
2022-08-12T17:20:29.042Z,0.98
2022-08-12T17:23:47.990Z,1.10
2022-08-12T17:26:56.315Z,1.20
2022-08-12T17:30:02.813Z,1.13
2022-08-12T17:33:07.540Z,1.05
2022-08-12T17:36:10.732Z,1.10
2022-08-12T17:39:12.529Z,1.17
2022-08-12T17:42:34.235Z,1.10
2022-08-12T17:45:42.333Z,1.15
2022-08-12T17:48:54.986Z,1.00
2022-08-12T17:52:02.423Z,1.08
2022-08-12T17:55:07.187Z,1.30
2022-08-12T17:58:35.682Z,1.10
2022-08-12T18:01:43.065Z,1.20
2022-08-12T18:05:05.506Z,1.20
2022-08-12T18:08:11.034Z,0.90
2022-08-12T18:12:03.650Z,1.10
2022-08-12T18:15:00.710Z,1.08
2022-08-12T18:18:03.787Z,1.07
2022-08-12T18:21:09.533Z,1.00
2022-08-12T18:24:19.825Z,1.10
2022-08-12T18:27:29.962Z,0.90
2022-08-12T18:30:52.261Z,1.20
2022-08-12T18:34:00.656Z,1.48
2022-08-12T18:37:27.036Z,1.00
2022-08-12T18:40:45.825Z,1.40
2022-08-12T18:43:58.508Z,1.02
2022-08-12T18:47:04.894Z,1.00
2022-08-12T18:50:10.877Z,1.05
2022-08-12T18:54:06.044Z,1.00
2022-08-12T18:56:39.001Z,1.20
2022-08-12T19:00:01.145Z,0.90
2022-08-12T19:03:06.163Z,1.23
2022-08-12T19:06:27.247Z,1.10
2022-08-12T19:09:57.476Z,1.10
2022-08-12T19:13:23.344Z,1.10
2022-08-12T19:16:26.913Z,1.10
2022-08-12T19:19:41.285Z,1.00
2022-08-12T19:22:44.069Z,1.13
2022-08-12T19:26:03.447Z,1.20
2022-08-12T19:29:07.523Z,1.20
2022-08-12T19:32:12.301Z,1.52
2022-08-12T19:38:37.250Z,1.23
2022-08-12T19:42:00.592Z,1.10
2022-08-12T19:45:04.896Z,1.25
2022-08-12T19:48:12.559Z,1.23
2022-08-12T19:51:38.266Z,1.10
2022-08-12T19:54:43.926Z,1.38
2022-08-12T19:58:02.524Z,1.40
2022-08-12T20:01:11.178Z,1.30
2022-08-12T20:04:14.495Z,1.13
2022-08-12T20:07:23.713Z,1.45
2022-08-12T20:10:35.435Z,1.25
2022-08-12T20:13:38.481Z,1.30
2022-08-12T20:16:51.708Z,1.45
2022-08-12T20:20:17.017Z,1.25
2022-08-12T20:23:24.200Z,1.23
2022-08-12T20:26:46.090Z,1.33
2022-08-12T20:29:47.865Z,1.10
2022-08-12T20:32:58.694Z,1.23
2022-08-12T20:36:13.688Z,1.30
2022-08-12T20:39:52.162Z,1.30
2022-08-12T20:42:47.489Z,1.30
2022-08-12T20:45:57.443Z,1.33
2022-08-12T20:49:14.338Z,1.27
2022-08-12T20:52:18.313Z,1.20
2022-08-12T20:55:20.163Z,1.25
2022-08-12T20:58:21.787Z,1.33
2022-08-12T21:01:28.977Z,1.30
2022-08-12T21:04:56.882Z,1.50
2022-08-12T21:08:01.996Z,1.40
2022-08-12T21:11:03.979Z,1.10
2022-08-12T21:14:06.151Z,1.30
2022-08-12T21:17:13.247Z,1.17
2022-08-12T21:20:22.328Z,1.30
2022-08-12T21:23:25.343Z,1.40
2022-08-12T21:26:27.724Z,1.58
2022-08-12T21:29:29.703Z,1.42
2022-08-12T21:32:43.164Z,1.15
2022-08-12T21:35:50.425Z,1.40
2022-08-12T21:39:01.006Z,1.42
2022-08-12T21:42:06.850Z,1.38
2022-08-12T21:45:45.685Z,1.33
2022-08-12T21:48:32.158Z,1.60
2022-08-12T21:51:49.195Z,1.40
2022-08-12T21:54:56.392Z,1.55
2022-08-12T21:58:10.742Z,1.52
2022-08-12T22:01:20.165Z,1.40
2022-08-12T22:04:43.304Z,1.50
2022-08-12T22:07:55.227Z,1.60
2022-08-12T22:10:59.790Z,1.40
2022-08-12T22:14:08.411Z,1.50
2022-08-12T22:17:10.969Z,1.45
2022-08-12T22:20:16.899Z,1.50
2022-08-12T22:23:21.655Z,1.50
2022-08-12T22:26:42.512Z,1.60
2022-08-12T22:30:03.359Z,1.60
2022-08-12T22:33:08.265Z,1.40
2022-08-12T22:36:21.905Z,1.73
2022-08-12T22:39:28.174Z,1.60
2022-08-12T22:42:51.613Z,1.52
2022-08-12T22:46:11.877Z,1.40
2022-08-12T22:49:13.425Z,1.60
2022-08-12T22:52:23.021Z,1.60
2022-08-12T22:55:58.648Z,1.50
2022-08-12T22:58:47.408Z,1.58
2022-08-12T23:02:01.290Z,1.60
2022-08-12T23:05:03.891Z,1.50
2022-08-12T23:08:12.783Z,1.70
2022-08-12T23:11:23.551Z,1.52
2022-08-12T23:14:27.310Z,1.70
2022-08-12T23:17:40.139Z,1.60
2022-08-12T23:20:42.831Z,1.52
2022-08-12T23:24:09.329Z,1.45
2022-08-12T23:27:44.205Z,1.70
2022-08-12T23:30:48.949Z,1.75
2022-08-12T23:34:00.080Z,1.40
2022-08-12T23:37:05.559Z,1.65
2022-08-12T23:40:14.979Z,1.50
2022-08-12T23:43:19.885Z,1.52
2022-08-12T23:46:25.832Z,1.48
2022-08-12T23:49:58.249Z,1.40
2022-08-12T23:52:51.576Z,1.42
2022-08-12T23:55:56.433Z,1.67
2022-08-12T23:58:58.562Z,1.60
